createdAt,value
2023-05-12T00:00:05.418Z,10.58
2023-05-12T00:02:31.835Z,10.57
2023-05-12T00:04:58.303Z,10.54
2023-05-12T00:07:24.767Z,10.55
2023-05-12T00:09:51.101Z,10.57
2023-05-12T00:12:17.654Z,10.55
2023-05-12T00:14:44.052Z,10.55
2023-05-12T00:17:10.399Z,10.54
2023-05-12T00:19:36.782Z,10.54
2023-05-12T00:22:03.134Z,10.55
2023-05-12T00:24:29.487Z,10.54
2023-05-12T00:26:55.852Z,10.54
2023-05-12T00:29:22.178Z,10.52
2023-05-12T00:31:48.604Z,10.54
2023-05-12T00:34:15.204Z,10.55
2023-05-12T00:36:41.533Z,10.55
2023-05-12T00:39:07.892Z,10.54
2023-05-12T00:41:34.231Z,10.55
2023-05-12T00:44:00.580Z,10.54
2023-05-12T00:46:26.979Z,10.52
2023-05-12T00:48:53.344Z,10.54
2023-05-12T00:51:19.708Z,10.55
2023-05-12T00:53:49.749Z,10.52
2023-05-12T00:56:16.852Z,10.54
2023-05-12T00:58:43.215Z,10.52
2023-05-12T01:01:09.586Z,10.51
2023-05-12T01:03:36.034Z,10.54
2023-05-12T01:06:02.610Z,10.52
2023-05-12T01:08:28.947Z,10.51
2023-05-12T01:10:55.300Z,10.52
2023-05-12T01:13:21.887Z,10.52
2023-05-12T01:15:48.293Z,10.51
2023-05-12T01:18:14.677Z,10.51
2023-05-12T01:20:41.083Z,10.51
2023-05-12T01:23:07.440Z,10.50
2023-05-12T01:25:33.792Z,10.50
2023-05-12T01:28:00.169Z,10.51
2023-05-12T01:30:29.446Z,10.52
2023-05-12T01:32:55.844Z,10.51
2023-05-12T01:35:22.428Z,10.51
2023-05-12T01:37:48.778Z,10.51
2023-05-12T01:40:15.353Z,10.50
2023-05-12T01:42:41.684Z,10.51
2023-05-12T01:45:08.230Z,10.50
2023-05-12T01:47:34.585Z,10.50
2023-05-12T01:50:00.942Z,10.48
2023-05-12T01:52:30.806Z,10.50
2023-05-12T01:54:57.158Z,10.48
2023-05-12T01:57:23.758Z,10.51
2023-05-12T01:59:50.130Z,10.48
2023-05-12T02:02:16.586Z,10.50
2023-05-12T02:04:42.982Z,10.48
2023-05-12T02:07:10.029Z,10.47
2023-05-12T02:09:36.624Z,10.48
2023-05-12T02:12:02.995Z,10.48
2023-05-12T02:14:29.585Z,10.47
2023-05-12T02:16:55.961Z,10.48
2023-05-12T02:19:22.509Z,10.47
2023-05-12T02:21:48.886Z,10.47
2023-05-12T02:24:15.468Z,10.47
2023-05-12T02:26:41.816Z,10.45
2023-05-12T02:29:08.149Z,10.47
2023-05-12T02:31:34.528Z,10.50
2023-05-12T02:34:01.119Z,10.47
2023-05-12T02:36:27.688Z,10.47
2023-05-12T02:38:54.067Z,10.47
2023-05-12T02:41:20.456Z,10.47
2023-05-12T02:43:46.790Z,10.50
2023-05-12T02:46:13.194Z,10.47
2023-05-12T02:48:39.788Z,10.45
2023-05-12T02:51:06.453Z,10.47
2023-05-12T02:53:32.827Z,10.45
2023-05-12T02:55:59.209Z,10.47
2023-05-12T02:58:25.575Z,10.44
2023-05-12T03:01:03.161Z,10.45
2023-05-12T03:03:37.654Z,10.45
2023-05-12T03:06:04.307Z,10.47
2023-05-12T03:08:30.670Z,10.45
2023-05-12T03:10:57.032Z,10.47
2023-05-12T03:13:23.623Z,10.47
2023-05-12T03:15:49.973Z,10.44
2023-05-12T03:18:16.332Z,10.44
2023-05-12T03:20:42.689Z,10.48
2023-05-12T03:23:09.286Z,10.45
2023-05-12T03:25:35.638Z,10.45
2023-05-12T03:28:01.979Z,10.44
2023-05-12T03:30:28.342Z,10.45
2023-05-12T03:32:54.731Z,10.44
2023-05-12T03:35:21.107Z,10.45
2023-05-12T03:37:47.471Z,10.44
2023-05-12T03:40:13.873Z,10.45
2023-05-12T03:42:40.207Z,10.44
2023-05-12T03:45:06.582Z,10.44
2023-05-12T03:47:33.072Z,10.42
2023-05-12T03:49:59.503Z,10.45
2023-05-12T03:52:25.841Z,10.44
2023-05-12T03:54:52.407Z,10.44
2023-05-12T03:57:21.620Z,10.44
2023-05-12T03:59:47.988Z,10.44
2023-05-12T04:02:14.396Z,10.42
2023-05-12T04:04:40.996Z,10.44
2023-05-12T04:07:07.368Z,10.41
2023-05-12T04:09:33.989Z,10.44
2023-05-12T04:12:00.361Z,10.42
2023-05-12T04:14:39.009Z,10.42
2023-05-12T04:17:08.420Z,10.44
2023-05-12T04:19:34.784Z,10.42
2023-05-12T04:22:01.381Z,10.44
2023-05-12T04:24:27.753Z,10.41
2023-05-12T04:26:54.330Z,10.41
2023-05-12T04:29:20.662Z,10.42
2023-05-12T04:31:47.283Z,10.44
2023-05-12T04:34:13.870Z,10.44
2023-05-12T04:36:40.225Z,10.40
2023-05-12T04:39:06.819Z,10.44
2023-05-12T04:41:33.173Z,10.42
2023-05-12T04:44:00.846Z,10.44
2023-05-12T04:46:27.368Z,10.42
2023-05-12T04:48:53.760Z,10.41
2023-05-12T04:51:20.105Z,10.44
2023-05-12T04:53:46.700Z,10.41
2023-05-12T04:56:13.279Z,10.41
2023-05-12T04:58:39.647Z,10.44
2023-05-12T05:01:06.040Z,10.44
2023-05-12T05:03:32.479Z,10.41
2023-05-12T05:05:59.123Z,10.41
2023-05-12T05:08:25.705Z,10.42
2023-05-12T05:10:52.500Z,10.42
2023-05-12T05:13:19.078Z,10.41
2023-05-12T05:15:45.530Z,10.45
2023-05-12T05:18:12.289Z,10.44
2023-05-12T05:20:40.859Z,10.41
2023-05-12T05:23:10.123Z,10.42
2023-05-12T05:25:36.467Z,10.42
2023-05-12T05:28:03.275Z,10.41
2023-05-12T05:30:29.639Z,10.41
2023-05-12T05:32:56.027Z,10.41
2023-05-12T05:35:22.596Z,10.41
2023-05-12T05:37:49.143Z,10.44
2023-05-12T05:40:15.499Z,10.42
2023-05-12T05:42:41.879Z,10.42
2023-05-12T05:45:10.726Z,10.41
2023-05-12T05:47:37.092Z,10.40
2023-05-12T05:50:04.969Z,10.41
2023-05-12T05:52:31.309Z,10.40
2023-05-12T05:54:58.899Z,10.41
2023-05-12T05:57:25.234Z,10.41
2023-05-12T05:59:51.593Z,10.42
2023-05-12T06:02:18.739Z,10.41
2023-05-12T06:04:45.092Z,10.41
2023-05-12T06:07:11.446Z,10.41
2023-05-12T06:09:37.782Z,10.42
2023-05-12T06:12:04.134Z,10.41
2023-05-12T06:14:30.494Z,10.42
2023-05-12T06:16:56.938Z,10.42
2023-05-12T06:19:23.387Z,10.41
2023-05-12T06:21:49.745Z,10.40
2023-05-12T06:24:16.097Z,10.41
2023-05-12T06:26:42.454Z,10.41
2023-05-12T06:29:09.585Z,10.42
2023-05-12T06:31:36.021Z,10.40
2023-05-12T06:34:04.457Z,10.42
2023-05-12T06:36:30.852Z,10.42
2023-05-12T06:38:57.435Z,10.42
2023-05-12T06:41:23.840Z,10.41
2023-05-12T06:43:50.684Z,10.42
2023-05-12T06:46:17.047Z,10.41
2023-05-12T06:48:43.392Z,10.41
2023-05-12T06:51:09.737Z,10.41
2023-05-12T06:53:36.870Z,10.44
2023-05-12T06:56:03.230Z,10.42
2023-05-12T06:58:29.623Z,10.41
2023-05-12T07:00:55.992Z,10.41
2023-05-12T07:03:22.402Z,10.44
2023-05-12T07:05:48.836Z,10.41
2023-05-12T07:08:15.220Z,10.41
2023-05-12T07:10:41.583Z,10.41
2023-05-12T07:13:07.976Z,10.41
2023-05-12T07:15:34.336Z,10.42
2023-05-12T07:18:00.725Z,10.44
2023-05-12T07:20:27.147Z,10.44
2023-05-12T07:22:53.532Z,10.44
2023-05-12T07:25:20.185Z,10.44
2023-05-12T07:27:46.958Z,10.45
2023-05-12T07:30:13.318Z,10.44
2023-05-12T07:32:39.686Z,10.42
2023-05-12T07:35:07.054Z,10.44
2023-05-12T07:37:33.422Z,10.44
2023-05-12T07:42:46.976Z,10.42
2023-05-12T07:45:13.330Z,10.44
2023-05-12T07:47:39.968Z,10.45
2023-05-12T07:50:06.365Z,10.41
2023-05-12T07:52:33.151Z,10.42
2023-05-12T07:54:59.507Z,10.44
2023-05-12T07:57:25.883Z,10.45
2023-05-12T07:59:52.250Z,10.45
2023-05-12T08:02:18.656Z,10.48
2023-05-12T08:04:45.026Z,10.42
2023-05-12T08:07:11.402Z,10.44
2023-05-12T08:09:37.812Z,10.45
2023-05-12T08:12:04.233Z,10.45
2023-05-12T08:14:31.090Z,10.44
2023-05-12T08:16:57.479Z,10.45
2023-05-12T08:19:23.902Z,10.44
2023-05-12T08:21:50.284Z,10.45
2023-05-12T08:24:16.648Z,10.47
2023-05-12T08:26:42.988Z,10.45
2023-05-12T08:29:09.344Z,10.45
2023-05-12T08:31:35.749Z,10.45
2023-05-12T08:34:09.804Z,10.45
2023-05-12T08:36:37.868Z,10.47
2023-05-12T08:39:07.066Z,10.45
2023-05-12T08:41:33.404Z,10.44
2023-05-12T08:43:59.771Z,10.47
2023-05-12T08:46:26.146Z,10.45
2023-05-12T08:48:52.523Z,10.47
2023-05-12T08:51:20.187Z,10.45
2023-05-12T08:53:46.558Z,10.44
2023-05-12T08:58:42.621Z,10.45
2023-05-12T09:01:11.406Z,10.47
2023-05-12T09:03:39.252Z,10.47
2023-05-12T09:06:05.755Z,10.47
2023-05-12T09:08:35.322Z,10.45
2023-05-12T09:11:01.696Z,10.47
2023-05-12T09:13:28.276Z,10.47
2023-05-12T09:15:54.655Z,10.45
2023-05-12T09:18:21.769Z,10.47
2023-05-12T09:20:48.151Z,10.47
2023-05-12T09:23:17.550Z,10.45
2023-05-12T09:25:44.771Z,10.45
2023-05-12T09:28:11.110Z,10.47
2023-05-12T09:30:37.956Z,10.47
2023-05-12T09:33:04.354Z,10.48
2023-05-12T09:35:33.239Z,10.45
2023-05-12T09:37:59.584Z,10.47
2023-05-12T09:40:25.921Z,10.48
2023-05-12T09:42:52.331Z,10.48
2023-05-12T09:45:18.939Z,10.47
2023-05-12T09:47:45.498Z,10.42
2023-05-12T09:50:11.872Z,10.48
2023-05-12T09:52:38.223Z,10.48
2023-05-12T09:55:04.572Z,10.47
2023-05-12T09:57:30.943Z,10.47
2023-05-12T09:59:57.337Z,10.47
2023-05-12T10:02:24.052Z,10.50
2023-05-12T10:04:50.657Z,10.50
2023-05-12T10:07:17.431Z,10.48
2023-05-12T10:09:43.818Z,10.50
2023-05-12T10:12:10.266Z,10.51
2023-05-12T10:14:36.655Z,10.47
2023-05-12T10:17:03.179Z,10.50
2023-05-12T10:19:29.652Z,10.51
2023-05-12T10:21:55.994Z,10.51
2023-05-12T10:24:22.374Z,10.51
2023-05-12T10:26:48.702Z,10.50
2023-05-12T10:29:15.514Z,10.52
2023-05-12T10:31:41.890Z,10.51
2023-05-12T10:34:08.282Z,10.52
2023-05-12T10:36:34.636Z,10.51
2023-05-12T10:39:00.974Z,10.51
2023-05-12T10:41:27.356Z,10.50
2023-05-12T10:43:53.730Z,10.52
2023-05-12T10:46:20.351Z,10.52
2023-05-12T10:48:46.731Z,10.50
2023-05-12T10:51:13.062Z,10.51
2023-05-12T10:53:49.108Z,10.54
2023-05-12T10:56:16.625Z,10.54
2023-05-12T10:58:43.453Z,10.52
2023-05-12T11:01:10.453Z,10.51
2023-05-12T11:03:38.371Z,10.52
2023-05-12T11:06:05.478Z,10.51
2023-05-12T11:08:32.551Z,10.54
2023-05-12T11:10:59.144Z,10.52
2023-05-12T11:13:25.759Z,10.52
2023-05-12T11:15:52.156Z,10.54
2023-05-12T11:18:18.808Z,10.55
2023-05-12T11:20:45.139Z,10.55
2023-05-12T11:23:11.513Z,10.52
2023-05-12T11:25:37.916Z,10.52
2023-05-12T11:28:04.270Z,10.57
2023-05-12T11:30:30.604Z,10.54
2023-05-12T11:32:56.983Z,10.55
2023-05-12T11:35:23.782Z,10.54
2023-05-12T11:37:50.313Z,10.54
2023-05-12T11:40:16.659Z,10.54
2023-05-12T11:42:43.020Z,10.54
2023-05-12T11:45:09.363Z,10.55
2023-05-12T11:47:35.751Z,10.54
2023-05-12T11:50:02.167Z,10.58
2023-05-12T11:52:28.531Z,10.54
2023-05-12T11:54:54.907Z,10.58
2023-05-12T11:57:21.521Z,10.55
2023-05-12T11:59:47.865Z,10.58
2023-05-12T12:02:14.247Z,10.55
2023-05-12T12:04:40.738Z,10.55
2023-05-12T12:07:07.224Z,10.54
2023-05-12T12:09:33.632Z,10.55
2023-05-12T12:11:59.971Z,10.57
2023-05-12T12:14:26.265Z,10.55
2023-05-12T12:16:52.615Z,10.57
2023-05-12T12:19:19.192Z,10.57
2023-05-12T12:21:45.556Z,10.59
2023-05-12T12:24:11.920Z,10.54
2023-05-12T12:26:39.442Z,10.57
2023-05-12T12:29:05.937Z,10.58
2023-05-12T12:31:32.307Z,10.57
2023-05-12T12:33:58.661Z,10.58
2023-05-12T12:36:25.238Z,10.55
2023-05-12T12:38:51.594Z,10.57
2023-05-12T12:41:17.976Z,10.59
2023-05-12T12:43:44.325Z,10.58
2023-05-12T12:46:10.682Z,10.58
2023-05-12T12:48:37.045Z,10.57
2023-05-12T12:51:03.429Z,10.57
2023-05-12T12:53:29.997Z,10.57
2023-05-12T12:55:56.350Z,10.57
2023-05-12T12:58:22.709Z,10.59
2023-05-12T13:00:49.075Z,10.55
2023-05-12T13:03:16.144Z,10.58
2023-05-12T13:05:43.918Z,10.57
2023-05-12T13:08:10.282Z,10.57
2023-05-12T13:10:36.621Z,10.58
2023-05-12T13:13:02.960Z,10.55
2023-05-12T13:15:29.292Z,10.58
2023-05-12T13:17:55.677Z,10.57
2023-05-12T13:20:22.282Z,10.57
2023-05-12T13:22:49.059Z,10.55
2023-05-12T13:25:15.426Z,10.57
2023-05-12T13:27:41.800Z,10.57
2023-05-12T13:30:08.443Z,10.55
2023-05-12T13:32:34.953Z,10.55
2023-05-12T13:35:01.632Z,10.58
2023-05-12T13:37:28.017Z,10.55
2023-05-12T13:39:54.401Z,10.57
2023-05-12T13:42:20.761Z,10.57
2023-05-12T13:44:47.336Z,10.55
2023-05-12T13:47:13.700Z,10.57
2023-05-12T13:49:40.076Z,10.55
2023-05-12T13:52:06.420Z,10.54
2023-05-12T13:54:32.790Z,10.55
2023-05-12T13:56:59.357Z,10.52
2023-05-12T13:59:25.728Z,10.54
2023-05-12T14:01:52.145Z,10.55
2023-05-12T14:04:18.533Z,10.57
2023-05-12T14:06:44.895Z,10.55
2023-05-12T14:09:11.251Z,10.57
2023-05-12T14:11:37.630Z,10.57
2023-05-12T14:14:04.224Z,10.55
2023-05-12T14:16:30.713Z,10.55
2023-05-12T14:18:57.151Z,10.55
2023-05-12T14:21:23.603Z,10.59
2023-05-12T14:23:51.232Z,10.64
2023-05-12T14:26:17.777Z,10.67
2023-05-12T14:28:44.471Z,10.67
2023-05-12T14:31:11.142Z,10.72
2023-05-12T14:33:37.537Z,10.72
2023-05-12T14:36:07.870Z,10.69
2023-05-12T14:38:35.131Z,10.72
2023-05-12T14:41:01.508Z,10.71
2023-05-12T14:43:27.880Z,10.72
2023-05-12T14:45:54.284Z,10.73
2023-05-12T14:48:20.936Z,10.71
2023-05-12T14:50:47.305Z,10.72
2023-05-12T14:53:13.668Z,10.72
2023-05-12T14:55:40.034Z,10.75
2023-05-12T14:58:06.380Z,10.75
2023-05-12T15:00:32.738Z,10.76
2023-05-12T15:02:59.133Z,10.79
2023-05-12T15:05:36.140Z,10.83
2023-05-12T15:08:07.979Z,10.83
2023-05-12T15:10:34.561Z,10.86
2023-05-12T15:13:00.914Z,10.86
2023-05-12T15:15:27.256Z,10.88
2023-05-12T15:17:53.991Z,10.91
2023-05-12T15:20:20.364Z,10.92
2023-05-12T15:22:46.729Z,10.92
2023-05-12T15:25:13.064Z,10.96
2023-05-12T15:27:39.398Z,10.93
2023-05-12T15:30:05.766Z,10.92
2023-05-12T15:32:32.159Z,10.93
2023-05-12T15:34:58.526Z,10.93
2023-05-12T15:37:25.101Z,10.92
2023-05-12T15:39:51.472Z,10.91
2023-05-12T15:42:22.449Z,10.93
2023-05-12T15:44:53.023Z,10.93
2023-05-12T15:47:19.392Z,10.93
2023-05-12T15:49:45.857Z,10.98
2023-05-12T15:52:12.273Z,11.03
2023-05-12T15:54:38.651Z,11.10
2023-05-12T15:57:05.018Z,11.13
2023-05-12T15:59:31.391Z,11.15
2023-05-12T16:01:58.021Z,11.15
2023-05-12T16:04:24.418Z,11.15
2023-05-12T16:06:50.807Z,11.19
2023-05-12T16:09:17.173Z,11.22
2023-05-12T16:11:43.544Z,11.20
2023-05-12T16:14:09.911Z,11.16
2023-05-12T16:16:36.292Z,11.10
2023-05-12T16:19:02.942Z,11.09
2023-05-12T16:21:29.357Z,11.07
2023-05-12T16:23:55.703Z,11.07
2023-05-12T16:26:22.070Z,11.03
2023-05-12T16:28:48.421Z,11.03
2023-05-12T16:31:14.793Z,10.99
2023-05-12T16:33:41.119Z,11.00
2023-05-12T16:36:07.666Z,10.99
2023-05-12T16:38:34.028Z,11.02
2023-05-12T16:41:00.380Z,11.02
2023-05-12T16:43:26.735Z,11.00
2023-05-12T16:45:53.119Z,10.98
2023-05-12T16:48:19.701Z,10.98
2023-05-12T16:50:46.039Z,10.99
2023-05-12T16:53:12.383Z,10.96
2023-05-12T16:55:38.750Z,10.93
2023-05-12T16:58:05.132Z,10.93
2023-05-12T17:00:31.662Z,10.92
2023-05-12T17:02:58.133Z,10.91
2023-05-12T17:05:24.768Z,10.92
2023-05-12T17:07:51.278Z,10.92
2023-05-12T17:10:17.659Z,10.92
2023-05-12T17:12:44.018Z,10.92
2023-05-12T17:15:10.365Z,10.89
2023-05-12T17:17:37.059Z,10.91
2023-05-12T17:20:03.478Z,10.91
2023-05-12T17:22:29.808Z,10.89
2023-05-12T17:24:56.143Z,10.91
2023-05-12T17:27:22.712Z,10.88
2023-05-12T17:29:49.089Z,10.91
2023-05-12T17:32:15.440Z,10.86
2023-05-12T17:34:41.816Z,10.85
2023-05-12T17:37:08.184Z,10.86
2023-05-12T17:39:34.572Z,10.85
2023-05-12T17:42:00.931Z,10.85
2023-05-12T17:44:27.270Z,10.85
2023-05-12T17:46:53.686Z,10.86
2023-05-12T17:49:20.071Z,10.83
2023-05-12T17:51:46.436Z,10.82
2023-05-12T17:54:12.792Z,10.80
2023-05-12T17:56:39.882Z,10.83
2023-05-12T17:59:06.228Z,10.82
2023-05-12T18:01:32.891Z,10.82
2023-05-12T18:03:59.296Z,10.82
2023-05-12T18:06:25.654Z,10.79
2023-05-12T18:08:52.021Z,10.78
2023-05-12T18:11:18.395Z,10.80
2023-05-12T18:13:44.762Z,10.80
2023-05-12T18:16:21.578Z,10.80
2023-05-12T18:18:54.232Z,10.80
2023-05-12T18:21:23.028Z,10.78
2023-05-12T18:23:49.388Z,10.76
2023-05-12T18:26:15.777Z,10.76
2023-05-12T18:28:42.360Z,10.76
2023-05-12T18:31:15.887Z,10.76
2023-05-12T18:33:42.797Z,10.78
2023-05-12T18:36:10.120Z,10.76
2023-05-12T18:38:36.711Z,10.75
2023-05-12T18:41:03.069Z,10.75
2023-05-12T18:43:29.612Z,10.76
2023-05-12T18:45:55.954Z,10.76
2023-05-12T18:48:22.326Z,10.76
2023-05-12T18:50:48.892Z,10.72
2023-05-12T18:53:15.268Z,10.75
2023-05-12T18:55:41.594Z,10.75
2023-05-12T18:58:07.942Z,10.73
2023-05-12T19:00:34.316Z,10.73
2023-05-12T19:03:01.014Z,10.73
2023-05-12T19:05:27.638Z,10.75
2023-05-12T19:07:54.047Z,10.76
2023-05-12T19:10:20.395Z,10.72
2023-05-12T19:12:47.400Z,10.73
2023-05-12T19:15:13.757Z,10.73
2023-05-12T19:17:40.172Z,10.75
2023-05-12T19:20:06.602Z,10.73
2023-05-12T19:22:33.183Z,10.72
2023-05-12T19:24:59.530Z,10.72
2023-05-12T19:27:25.887Z,10.73
2023-05-12T19:29:52.218Z,10.72
2023-05-12T19:32:18.567Z,10.72
2023-05-12T19:34:44.950Z,10.72
2023-05-12T19:37:11.320Z,10.71
2023-05-12T19:39:37.694Z,10.72
2023-05-12T19:42:04.093Z,10.69
2023-05-12T19:44:30.483Z,10.69
2023-05-12T19:46:56.829Z,10.71
2023-05-12T19:49:23.197Z,10.69
2023-05-12T19:51:49.564Z,10.71
2023-05-12T19:54:15.910Z,10.69
2023-05-12T19:56:42.284Z,10.68
2023-05-12T19:59:08.644Z,10.71
2023-05-12T20:01:35.083Z,10.68
2023-05-12T20:04:02.022Z,10.68
2023-05-12T20:06:28.363Z,10.69
2023-05-12T20:08:54.704Z,10.69
2023-05-12T20:11:21.056Z,10.71
2023-05-12T20:13:47.396Z,10.69
2023-05-12T20:16:13.788Z,10.67
2023-05-12T20:18:40.178Z,10.71
2023-05-12T20:21:06.553Z,10.68
2023-05-12T20:23:32.904Z,10.68
2023-05-12T20:25:59.256Z,10.71
2023-05-12T20:28:25.598Z,10.67
2023-05-12T20:30:52.068Z,10.67
2023-05-12T20:33:18.668Z,10.69
2023-05-12T20:35:45.226Z,10.69
2023-05-12T20:38:11.620Z,10.67
2023-05-12T20:40:38.178Z,10.67
2023-05-12T20:43:04.524Z,10.67
2023-05-12T20:45:31.094Z,10.67
2023-05-12T20:47:57.474Z,10.67
2023-05-12T20:50:24.077Z,10.65
2023-05-12T20:52:50.431Z,10.64
2023-05-12T20:55:16.985Z,10.65
2023-05-12T20:57:43.361Z,10.65
2023-05-12T21:00:10.214Z,10.67
2023-05-12T21:02:36.801Z,10.65
2023-05-12T21:05:03.166Z,10.65
2023-05-12T21:07:29.557Z,10.65
2023-05-12T21:09:55.906Z,10.62
2023-05-12T21:12:22.478Z,10.65
2023-05-12T21:14:48.848Z,10.64
2023-05-12T21:17:15.205Z,10.62
2023-05-12T21:19:41.590Z,10.64
2023-05-12T21:22:07.933Z,10.62
2023-05-12T21:24:34.338Z,10.65
2023-05-12T21:27:00.891Z,10.62
2023-05-12T21:29:27.271Z,10.62
2023-05-12T21:31:53.663Z,10.64
2023-05-12T21:34:20.019Z,10.61
2023-05-12T21:36:46.584Z,10.61
2023-05-12T21:39:13.158Z,10.62
2023-05-12T21:41:39.507Z,10.59
2023-05-12T21:44:06.062Z,10.61
2023-05-12T21:46:32.463Z,10.61
2023-05-12T21:48:58.833Z,10.61
2023-05-12T21:51:25.194Z,10.59
2023-05-12T21:53:51.539Z,10.61
2023-05-12T21:56:18.153Z,10.59
2023-05-12T21:58:44.548Z,10.59
2023-05-12T22:01:10.941Z,10.58
2023-05-12T22:03:37.356Z,10.59
2023-05-12T22:06:03.742Z,10.59
2023-05-12T22:08:30.114Z,10.61
2023-05-12T22:10:56.498Z,10.59
2023-05-12T22:13:22.864Z,10.61
2023-05-12T22:15:49.459Z,10.61
2023-05-12T22:18:16.252Z,10.58
2023-05-12T22:20:42.610Z,10.58
2023-05-12T22:23:08.957Z,10.61
2023-05-12T22:25:35.525Z,10.58
2023-05-12T22:28:01.898Z,10.58
2023-05-12T22:30:28.276Z,10.58
2023-05-12T22:32:54.655Z,10.59
2023-05-12T22:35:21.245Z,10.57
2023-05-12T22:37:47.581Z,10.58
2023-05-12T22:40:13.924Z,10.57
2023-05-12T22:45:27.084Z,10.57
2023-05-12T22:47:53.869Z,10.58
2023-05-12T22:50:20.550Z,10.58
2023-05-12T22:52:47.306Z,10.55
2023-05-12T22:55:13.662Z,10.54
2023-05-12T22:57:40.026Z,10.58
2023-05-12T23:00:06.388Z,10.57
2023-05-12T23:02:32.838Z,10.57
2023-05-12T23:04:59.451Z,10.55
2023-05-12T23:07:25.805Z,10.57
2023-05-12T23:09:52.436Z,10.57
2023-05-12T23:12:18.798Z,10.55
2023-05-12T23:14:45.352Z,10.55
2023-05-12T23:17:11.713Z,10.57
2023-05-12T23:19:38.071Z,10.57
2023-05-12T23:22:04.392Z,10.58
2023-05-12T23:24:30.709Z,10.54
2023-05-12T23:26:57.053Z,10.55
2023-05-12T23:29:23.413Z,10.55
2023-05-12T23:31:49.795Z,10.55
2023-05-12T23:34:16.183Z,10.52
2023-05-12T23:36:42.540Z,10.55
2023-05-12T23:39:08.882Z,10.55
2023-05-12T23:41:35.244Z,10.54
2023-05-12T23:44:01.604Z,10.55
2023-05-12T23:46:28.176Z,10.54
2023-05-12T23:48:54.548Z,10.54
2023-05-12T23:51:20.894Z,10.52
2023-05-12T23:53:47.277Z,10.55
2023-05-12T23:56:13.831Z,10.57
2023-05-12T23:58:40.173Z,10.55
